sensor_id;sensor_type;location;lat;lon;timestamp;temperature;humidity
23550;DHT22;11953;49.010;8.608;2022-08-18T00:02:41;22.50;99.90
23550;DHT22;11953;49.010;8.608;2022-08-18T00:05:45;22.40;99.90
23550;DHT22;11953;49.010;8.608;2022-08-18T00:08:32;22.40;99.90
23550;DHT22;11953;49.010;8.608;2022-08-18T00:11:24;22.40;99.90
23550;DHT22;11953;49.010;8.608;2022-08-18T00:14:14;22.40;99.90
23550;DHT22;11953;49.010;8.608;2022-08-18T00:17:07;22.30;99.90
23550;DHT22;11953;49.010;8.608;2022-08-18T00:19:53;22.30;99.90
23550;DHT22;11953;49.010;8.608;2022-08-18T00:22:40;22.30;99.90
23550;DHT22;11953;49.010;8.608;2022-08-18T00:25:27;22.30;99.90
23550;DHT22;11953;49.010;8.608;2022-08-18T00:28:15;22.20;99.90
23550;DHT22;11953;49.010;8.608;2022-08-18T00:31:03;22.20;99.90
23550;DHT22;11953;49.010;8.608;2022-08-18T00:33:50;22.20;99.90
23550;DHT22;11953;49.010;8.608;2022-08-18T00:36:37;22.00;99.90
23550;DHT22;11953;49.010;8.608;2022-08-18T00:39:24;22.00;99.90
23550;DHT22;11953;49.010;8.608;2022-08-18T00:42:12;21.90;99.90
23550;DHT22;11953;49.010;8.608;2022-08-18T00:45:19;21.80;99.90
23550;DHT22;11953;49.010;8.608;2022-08-18T00:48:07;21.80;99.90
23550;DHT22;11953;49.010;8.608;2022-08-18T00:50:58;21.40;99.90
23550;DHT22;11953;49.010;8.608;2022-08-18T00:53:47;21.00;99.90
23550;DHT22;11953;49.010;8.608;2022-08-18T00:56:38;20.90;99.90
23550;DHT22;11953;49.010;8.608;2022-08-18T00:59:33;21.10;99.90
23550;DHT22;11953;49.010;8.608;2022-08-18T01:02:27;21.20;99.90
23550;DHT22;11953;49.010;8.608;2022-08-18T01:05:15;21.30;99.90
23550;DHT22;11953;49.010;8.608;2022-08-18T01:08:03;21.40;99.90
23550;DHT22;11953;49.010;8.608;2022-08-18T01:10:50;21.50;99.90
23550;DHT22;11953;49.010;8.608;2022-08-18T01:13:38;21.60;99.90
23550;DHT22;11953;49.010;8.608;2022-08-18T01:16:27;21.60;99.90
23550;DHT22;11953;49.010;8.608;2022-08-18T01:19:43;21.60;99.90
23550;DHT22;11953;49.010;8.608;2022-08-18T01:22:59;21.50;99.90
23550;DHT22;11953;49.010;8.608;2022-08-18T01:25:51;21.60;99.90
23550;DHT22;11953;49.010;8.608;2022-08-18T01:28:48;21.60;99.90
23550;DHT22;11953;49.010;8.608;2022-08-18T01:31:39;21.70;99.90
23550;DHT22;11953;49.010;8.608;2022-08-18T01:34:39;21.70;99.90
23550;DHT22;11953;49.010;8.608;2022-08-18T01:37:25;21.70;99.90
23550;DHT22;11953;49.010;8.608;2022-08-18T01:40:15;21.60;99.90
23550;DHT22;11953;49.010;8.608;2022-08-18T01:43:23;21.60;99.90
23550;DHT22;11953;49.010;8.608;2022-08-18T01:46:10;21.60;99.90
23550;DHT22;11953;49.010;8.608;2022-08-18T01:48:57;21.60;99.90
23550;DHT22;11953;49.010;8.608;2022-08-18T01:51:45;21.50;99.90
23550;DHT22;11953;49.010;8.608;2022-08-18T01:54:32;21.60;99.90
23550;DHT22;11953;49.010;8.608;2022-08-18T01:57:21;21.60;99.90
23550;DHT22;11953;49.010;8.608;2022-08-18T02:00:09;21.60;99.90
23550;DHT22;11953;49.010;8.608;2022-08-18T02:02:58;21.60;99.90
23550;DHT22;11953;49.010;8.608;2022-08-18T02:05:48;21.50;99.90
23550;DHT22;11953;49.010;8.608;2022-08-18T02:08:37;21.50;99.90
23550;DHT22;11953;49.010;8.608;2022-08-18T02:11:28;21.40;99.90
23550;DHT22;11953;49.010;8.608;2022-08-18T02:14:15;21.60;99.90
23550;DHT22;11953;49.010;8.608;2022-08-18T02:17:11;21.60;99.90
23550;DHT22;11953;49.010;8.608;2022-08-18T02:19:58;21.70;99.90
23550;DHT22;11953;49.010;8.608;2022-08-18T02:22:45;21.70;99.90
23550;DHT22;11953;49.010;8.608;2022-08-18T02:25:33;21.50;99.90
23550;DHT22;11953;49.010;8.608;2022-08-18T02:28:19;21.50;99.90
23550;DHT22;11953;49.010;8.608;2022-08-18T02:31:10;21.70;99.90
23550;DHT22;11953;49.010;8.608;2022-08-18T02:33:57;21.70;99.90
23550;DHT22;11953;49.010;8.608;2022-08-18T02:36:44;21.50;99.90
23550;DHT22;11953;49.010;8.608;2022-08-18T02:39:33;21.40;99.90
23550;DHT22;11953;49.010;8.608;2022-08-18T02:42:22;21.40;99.90
23550;DHT22;11953;49.010;8.608;2022-08-18T02:45:09;21.30;99.90
23550;DHT22;11953;49.010;8.608;2022-08-18T02:47:58;21.40;99.90
23550;DHT22;11953;49.010;8.608;2022-08-18T02:50:45;21.40;99.90
23550;DHT22;11953;49.010;8.608;2022-08-18T02:53:32;21.50;99.90
23550;DHT22;11953;49.010;8.608;2022-08-18T02:56:21;21.50;99.90
23550;DHT22;11953;49.010;8.608;2022-08-18T02:59:26;21.30;99.90
23550;DHT22;11953;49.010;8.608;2022-08-18T03:02:17;21.30;99.90
23550;DHT22;11953;49.010;8.608;2022-08-18T03:05:07;21.20;99.90
23550;DHT22;11953;49.010;8.608;2022-08-18T03:07:59;21.20;99.90
23550;DHT22;11953;49.010;8.608;2022-08-18T03:10:50;21.20;99.90
23550;DHT22;11953;49.010;8.608;2022-08-18T03:13:37;21.10;99.90
23550;DHT22;11953;49.010;8.608;2022-08-18T03:16:24;20.70;99.90
23550;DHT22;11953;49.010;8.608;2022-08-18T03:19:11;20.60;99.90
23550;DHT22;11953;49.010;8.608;2022-08-18T03:22:01;20.40;99.90
23550;DHT22;11953;49.010;8.608;2022-08-18T03:25:10;20.30;99.90
23550;DHT22;11953;49.010;8.608;2022-08-18T03:27:56;20.40;99.90
23550;DHT22;11953;49.010;8.608;2022-08-18T03:30:43;20.60;99.90
23550;DHT22;11953;49.010;8.608;2022-08-18T03:33:30;20.70;99.90
23550;DHT22;11953;49.010;8.608;2022-08-18T03:36:21;20.80;99.90
23550;DHT22;11953;49.010;8.608;2022-08-18T03:39:11;20.90;99.90
23550;DHT22;11953;49.010;8.608;2022-08-18T03:41:58;20.90;99.90
23550;DHT22;11953;49.010;8.608;2022-08-18T03:44:46;21.00;99.90
23550;DHT22;11953;49.010;8.608;2022-08-18T03:47:33;20.90;99.90
23550;DHT22;11953;49.010;8.608;2022-08-18T03:50:20;20.90;99.90
23550;DHT22;11953;49.010;8.608;2022-08-18T03:53:10;20.90;99.90
23550;DHT22;11953;49.010;8.608;2022-08-18T03:55:58;20.80;99.90
23550;DHT22;11953;49.010;8.608;2022-08-18T03:58:47;20.90;99.90
23550;DHT22;11953;49.010;8.608;2022-08-18T04:01:37;20.90;99.90
23550;DHT22;11953;49.010;8.608;2022-08-18T04:04:26;20.90;99.90
23550;DHT22;11953;49.010;8.608;2022-08-18T04:07:13;20.90;99.90
23550;DHT22;11953;49.010;8.608;2022-08-18T04:10:02;20.90;99.90
23550;DHT22;11953;49.010;8.608;2022-08-18T04:12:50;20.80;99.90
23550;DHT22;11953;49.010;8.608;2022-08-18T04:15:37;20.90;99.90
23550;DHT22;11953;49.010;8.608;2022-08-18T04:18:23;21.00;99.90
23550;DHT22;11953;49.010;8.608;2022-08-18T04:21:11;20.90;99.90
23550;DHT22;11953;49.010;8.608;2022-08-18T04:24:00;20.90;99.90
23550;DHT22;11953;49.010;8.608;2022-08-18T04:26:49;20.90;99.90
23550;DHT22;11953;49.010;8.608;2022-08-18T04:29:37;20.90;99.90
23550;DHT22;11953;49.010;8.608;2022-08-18T04:32:24;20.80;99.90
23550;DHT22;11953;49.010;8.608;2022-08-18T04:35:14;20.80;99.90
23550;DHT22;11953;49.010;8.608;2022-08-18T04:38:00;20.80;99.90
23550;DHT22;11953;49.010;8.608;2022-08-18T04:40:47;20.90;99.90
23550;DHT22;11953;49.010;8.608;2022-08-18T04:43:34;20.90;99.90
23550;DHT22;11953;49.010;8.608;2022-08-18T04:46:23;20.90;99.90
23550;DHT22;11953;49.010;8.608;2022-08-18T04:49:10;20.90;99.90
23550;DHT22;11953;49.010;8.608;2022-08-18T04:51:58;20.80;99.90
23550;DHT22;11953;49.010;8.608;2022-08-18T04:55:22;20.90;99.90
23550;DHT22;11953;49.010;8.608;2022-08-18T04:58:08;21.00;99.90
23550;DHT22;11953;49.010;8.608;2022-08-18T05:00:56;20.90;99.90
23550;DHT22;11953;49.010;8.608;2022-08-18T05:03:45;20.80;99.90
23550;DHT22;11953;49.010;8.608;2022-08-18T05:06:35;20.90;99.90
23550;DHT22;11953;49.010;8.608;2022-08-18T05:09:22;20.90;99.90
23550;DHT22;11953;49.010;8.608;2022-08-18T05:12:14;20.90;99.90
23550;DHT22;11953;49.010;8.608;2022-08-18T05:15:01;20.80;99.90
23550;DHT22;11953;49.010;8.608;2022-08-18T05:17:49;20.90;99.90
23550;DHT22;11953;49.010;8.608;2022-08-18T05:20:37;21.00;99.90
23550;DHT22;11953;49.010;8.608;2022-08-18T05:23:27;21.10;99.90
23550;DHT22;11953;49.010;8.608;2022-08-18T05:26:17;20.90;99.90
23550;DHT22;11953;49.010;8.608;2022-08-18T05:29:04;21.00;99.90
23550;DHT22;11953;49.010;8.608;2022-08-18T05:32:04;20.90;99.90
23550;DHT22;11953;49.010;8.608;2022-08-18T05:34:52;20.90;99.90
23550;DHT22;11953;49.010;8.608;2022-08-18T05:37:56;20.90;99.90
23550;DHT22;11953;49.010;8.608;2022-08-18T05:41:06;21.00;99.90
23550;DHT22;11953;49.010;8.608;2022-08-18T05:43:59;21.10;99.90
23550;DHT22;11953;49.010;8.608;2022-08-18T05:46:51;21.20;99.90
23550;DHT22;11953;49.010;8.608;2022-08-18T05:49:39;21.20;99.90
23550;DHT22;11953;49.010;8.608;2022-08-18T05:52:32;21.30;99.90
23550;DHT22;11953;49.010;8.608;2022-08-18T05:55:28;21.30;99.90
23550;DHT22;11953;49.010;8.608;2022-08-18T05:58:37;21.30;99.90
23550;DHT22;11953;49.010;8.608;2022-08-18T06:01:28;21.40;99.90
23550;DHT22;11953;49.010;8.608;2022-08-18T06:04:22;21.40;99.90
23550;DHT22;11953;49.010;8.608;2022-08-18T06:07:13;21.40;99.90
23550;DHT22;11953;49.010;8.608;2022-08-18T06:10:02;21.50;99.90
23550;DHT22;11953;49.010;8.608;2022-08-18T06:12:55;21.50;99.90
23550;DHT22;11953;49.010;8.608;2022-08-18T06:15:51;21.50;99.90
23550;DHT22;11953;49.010;8.608;2022-08-18T06:18:43;21.60;99.90
23550;DHT22;11953;49.010;8.608;2022-08-18T06:21:38;21.60;99.90
23550;DHT22;11953;49.010;8.608;2022-08-18T06:24:32;21.60;99.90
23550;DHT22;11953;49.010;8.608;2022-08-18T06:27:27;21.60;99.90
23550;DHT22;11953;49.010;8.608;2022-08-18T06:30:20;21.50;99.90
23550;DHT22;11953;49.010;8.608;2022-08-18T06:33:13;21.60;99.90
23550;DHT22;11953;49.010;8.608;2022-08-18T06:36:06;21.70;99.90
23550;DHT22;11953;49.010;8.608;2022-08-18T06:39:03;21.80;99.90
23550;DHT22;11953;49.010;8.608;2022-08-18T06:41:51;21.90;99.90
23550;DHT22;11953;49.010;8.608;2022-08-18T06:44:43;21.90;99.90
23550;DHT22;11953;49.010;8.608;2022-08-18T06:47:38;22.00;99.90
23550;DHT22;11953;49.010;8.608;2022-08-18T06:50:33;22.00;99.90
23550;DHT22;11953;49.010;8.608;2022-08-18T06:53:54;22.20;99.90
23550;DHT22;11953;49.010;8.608;2022-08-18T06:56:48;22.20;99.90
23550;DHT22;11953;49.010;8.608;2022-08-18T06:59:35;22.30;99.90
23550;DHT22;11953;49.010;8.608;2022-08-18T07:02:26;22.50;99.90
23550;DHT22;11953;49.010;8.608;2022-08-18T07:05:25;23.00;99.90
23550;DHT22;11953;49.010;8.608;2022-08-18T07:08:15;23.40;99.90
23550;DHT22;11953;49.010;8.608;2022-08-18T07:11:12;23.20;99.90
23550;DHT22;11953;49.010;8.608;2022-08-18T07:14:14;23.10;99.90
23550;DHT22;11953;49.010;8.608;2022-08-18T07:17:07;23.00;99.90
23550;DHT22;11953;49.010;8.608;2022-08-18T07:19:57;22.80;99.90
23550;DHT22;11953;49.010;8.608;2022-08-18T07:22:55;22.60;99.90
23550;DHT22;11953;49.010;8.608;2022-08-18T07:25:45;22.50;99.90
23550;DHT22;11953;49.010;8.608;2022-08-18T07:28:37;22.40;99.90
23550;DHT22;11953;49.010;8.608;2022-08-18T07:31:35;22.30;99.90
23550;DHT22;11953;49.010;8.608;2022-08-18T07:34:26;22.30;99.90
23550;DHT22;11953;49.010;8.608;2022-08-18T07:37:16;22.10;99.90
23550;DHT22;11953;49.010;8.608;2022-08-18T07:40:18;22.10;99.90
23550;DHT22;11953;49.010;8.608;2022-08-18T07:43:10;22.10;99.90
23550;DHT22;11953;49.010;8.608;2022-08-18T07:46:04;22.10;99.90
23550;DHT22;11953;49.010;8.608;2022-08-18T07:48:55;22.10;99.90
23550;DHT22;11953;49.010;8.608;2022-08-18T07:51:46;22.10;99.90
23550;DHT22;11953;49.010;8.608;2022-08-18T07:54:44;22.20;99.90
23550;DHT22;11953;49.010;8.608;2022-08-18T07:57:42;22.10;99.90
23550;DHT22;11953;49.010;8.608;2022-08-18T08:00:33;22.20;99.90
23550;DHT22;11953;49.010;8.608;2022-08-18T08:03:48;22.20;99.90
23550;DHT22;11953;49.010;8.608;2022-08-18T08:06:41;22.20;99.90
23550;DHT22;11953;49.010;8.608;2022-08-18T08:09:57;22.10;99.90
23550;DHT22;11953;49.010;8.608;2022-08-18T08:12:52;22.20;99.90
23550;DHT22;11953;49.010;8.608;2022-08-18T08:15:59;22.10;99.90
23550;DHT22;11953;49.010;8.608;2022-08-18T08:18:55;22.10;99.90
23550;DHT22;11953;49.010;8.608;2022-08-18T08:25:00;22.00;99.90
23550;DHT22;11953;49.010;8.608;2022-08-18T08:28:00;22.10;99.90
23550;DHT22;11953;49.010;8.608;2022-08-18T08:31:00;22.10;99.90
23550;DHT22;11953;49.010;8.608;2022-08-18T08:34:13;22.10;99.90
23550;DHT22;11953;49.010;8.608;2022-08-18T08:37:03;22.10;99.90
23550;DHT22;11953;49.010;8.608;2022-08-18T08:39:53;22.10;99.90
23550;DHT22;11953;49.010;8.608;2022-08-18T08:42:48;22.00;99.90
23550;DHT22;11953;49.010;8.608;2022-08-18T08:45:41;22.10;99.90
23550;DHT22;11953;49.010;8.608;2022-08-18T08:48:30;22.40;99.90
23550;DHT22;11953;49.010;8.608;2022-08-18T08:51:30;22.60;99.90
23550;DHT22;11953;49.010;8.608;2022-08-18T08:54:22;22.90;99.90
23550;DHT22;11953;49.010;8.608;2022-08-18T08:57:12;22.90;99.90
23550;DHT22;11953;49.010;8.608;2022-08-18T09:00:03;23.00;99.90
23550;DHT22;11953;49.010;8.608;2022-08-18T09:03:05;22.90;99.90
23550;DHT22;11953;49.010;8.608;2022-08-18T09:06:02;22.90;99.90
23550;DHT22;11953;49.010;8.608;2022-08-18T09:09:00;23.10;99.90
23550;DHT22;11953;49.010;8.608;2022-08-18T09:15:27;23.10;99.90
23550;DHT22;11953;49.010;8.608;2022-08-18T09:18:33;23.20;99.90
23550;DHT22;11953;49.010;8.608;2022-08-18T09:21:31;23.50;99.90
23550;DHT22;11953;49.010;8.608;2022-08-18T09:24:24;23.70;99.90
23550;DHT22;11953;49.010;8.608;2022-08-18T09:27:22;24.10;99.90
23550;DHT22;11953;49.010;8.608;2022-08-18T09:30:38;24.50;99.90
23550;DHT22;11953;49.010;8.608;2022-08-18T09:33:33;24.90;99.90
23550;DHT22;11953;49.010;8.608;2022-08-18T09:36:32;25.00;99.90
23550;DHT22;11953;49.010;8.608;2022-08-18T09:39:27;25.20;99.90
23550;DHT22;11953;49.010;8.608;2022-08-18T09:42:45;25.60;99.90
23550;DHT22;11953;49.010;8.608;2022-08-18T09:45:55;25.70;99.90
23550;DHT22;11953;49.010;8.608;2022-08-18T09:48:47;25.60;99.90
23550;DHT22;11953;49.010;8.608;2022-08-18T09:55:54;25.00;99.90
23550;DHT22;11953;49.010;8.608;2022-08-18T09:58:56;24.80;99.90
23550;DHT22;11953;49.010;8.608;2022-08-18T10:01:47;24.90;99.90
23550;DHT22;11953;49.010;8.608;2022-08-18T10:04:39;25.00;99.90
23550;DHT22;11953;49.010;8.608;2022-08-18T10:07:34;25.10;99.90
23550;DHT22;11953;49.010;8.608;2022-08-18T10:10:30;25.30;99.90
23550;DHT22;11953;49.010;8.608;2022-08-18T10:13:46;25.50;99.90
23550;DHT22;11953;49.010;8.608;2022-08-18T10:16:43;25.60;99.90
23550;DHT22;11953;49.010;8.608;2022-08-18T10:20:01;25.40;99.90
23550;DHT22;11953;49.010;8.608;2022-08-18T10:22:52;25.30;99.90
23550;DHT22;11953;49.010;8.608;2022-08-18T10:25:42;25.30;99.90
23550;DHT22;11953;49.010;8.608;2022-08-18T10:28:52;25.30;99.90
23550;DHT22;11953;49.010;8.608;2022-08-18T10:35:00;25.70;99.90
23550;DHT22;11953;49.010;8.608;2022-08-18T10:37:51;25.80;99.90
23550;DHT22;11953;49.010;8.608;2022-08-18T10:40:41;25.90;99.90
23550;DHT22;11953;49.010;8.608;2022-08-18T10:43:36;26.10;99.90
23550;DHT22;11953;49.010;8.608;2022-08-18T10:46:41;26.20;99.90
23550;DHT22;11953;49.010;8.608;2022-08-18T10:49:31;26.20;99.90
23550;DHT22;11953;49.010;8.608;2022-08-18T10:52:45;26.10;99.90
23550;DHT22;11953;49.010;8.608;2022-08-18T10:56:00;26.40;99.90
23550;DHT22;11953;49.010;8.608;2022-08-18T10:59:01;26.50;99.90
23550;DHT22;11953;49.010;8.608;2022-08-18T11:02:08;26.60;99.90
23550;DHT22;11953;49.010;8.608;2022-08-18T11:05:04;26.50;99.90
23550;DHT22;11953;49.010;8.608;2022-08-18T11:07:59;26.50;99.90
23550;DHT22;11953;49.010;8.608;2022-08-18T11:11:06;26.50;99.90
23550;DHT22;11953;49.010;8.608;2022-08-18T11:14:41;26.50;99.90
23550;DHT22;11953;49.010;8.608;2022-08-18T11:17:54;26.50;99.90
23550;DHT22;11953;49.010;8.608;2022-08-18T11:20:42;26.80;99.90
23550;DHT22;11953;49.010;8.608;2022-08-18T11:23:33;26.90;99.90
23550;DHT22;11953;49.010;8.608;2022-08-18T11:26:28;27.20;99.90
23550;DHT22;11953;49.010;8.608;2022-08-18T11:29:22;27.30;99.90
23550;DHT22;11953;49.010;8.608;2022-08-18T11:32:12;27.30;99.90
23550;DHT22;11953;49.010;8.608;2022-08-18T11:35:05;27.20;99.90
23550;DHT22;11953;49.010;8.608;2022-08-18T11:37:57;26.80;99.90
23550;DHT22;11953;49.010;8.608;2022-08-18T11:40:46;26.60;99.90
23550;DHT22;11953;49.010;8.608;2022-08-18T11:43:57;26.50;99.90
23550;DHT22;11953;49.010;8.608;2022-08-18T11:46:46;26.60;99.90
23550;DHT22;11953;49.010;8.608;2022-08-18T11:49:36;27.40;99.90
23550;DHT22;11953;49.010;8.608;2022-08-18T11:52:31;27.70;99.90
23550;DHT22;11953;49.010;8.608;2022-08-18T11:55:27;27.60;99.90
23550;DHT22;11953;49.010;8.608;2022-08-18T11:58:40;27.50;99.90
23550;DHT22;11953;49.010;8.608;2022-08-18T12:01:36;27.10;99.90
23550;DHT22;11953;49.010;8.608;2022-08-18T12:04:34;27.20;99.90
23550;DHT22;11953;49.010;8.608;2022-08-18T12:07:27;27.30;99.90
23550;DHT22;11953;49.010;8.608;2022-08-18T12:10:20;27.20;99.90
23550;DHT22;11953;49.010;8.608;2022-08-18T12:13:21;27.10;99.90
23550;DHT22;11953;49.010;8.608;2022-08-18T12:16:13;27.30;99.90
23550;DHT22;11953;49.010;8.608;2022-08-18T12:19:02;27.60;99.90
23550;DHT22;11953;49.010;8.608;2022-08-18T12:22:14;28.00;99.90
23550;DHT22;11953;49.010;8.608;2022-08-18T12:25:06;28.00;99.90
23550;DHT22;11953;49.010;8.608;2022-08-18T12:27:56;27.90;99.90
23550;DHT22;11953;49.010;8.608;2022-08-18T12:30:43;28.00;99.90
23550;DHT22;11953;49.010;8.608;2022-08-18T12:33:32;28.30;99.90
23550;DHT22;11953;49.010;8.608;2022-08-18T12:36:33;28.50;99.90
23550;DHT22;11953;49.010;8.608;2022-08-18T12:39:22;28.10;99.90
23550;DHT22;11953;49.010;8.608;2022-08-18T12:42:09;28.10;99.90
23550;DHT22;11953;49.010;8.608;2022-08-18T12:44:57;28.10;99.90
23550;DHT22;11953;49.010;8.608;2022-08-18T12:47:43;27.50;99.90
23550;DHT22;11953;49.010;8.608;2022-08-18T12:50:32;27.60;99.90
23550;DHT22;11953;49.010;8.608;2022-08-18T12:53:34;27.70;99.90
23550;DHT22;11953;49.010;8.608;2022-08-18T12:56:42;27.80;99.90
23550;DHT22;11953;49.010;8.608;2022-08-18T12:59:29;28.00;99.90
23550;DHT22;11953;49.010;8.608;2022-08-18T13:02:36;28.10;99.90
23550;DHT22;11953;49.010;8.608;2022-08-18T13:05:27;27.80;99.90
23550;DHT22;11953;49.010;8.608;2022-08-18T13:08:18;27.50;99.90
23550;DHT22;11953;49.010;8.608;2022-08-18T13:11:15;27.50;99.90
23550;DHT22;11953;49.010;8.608;2022-08-18T13:14:08;27.20;99.90
23550;DHT22;11953;49.010;8.608;2022-08-18T13:16:55;27.40;99.90
23550;DHT22;11953;49.010;8.608;2022-08-18T13:19:41;27.40;99.90
23550;DHT22;11953;49.010;8.608;2022-08-18T13:22:28;27.60;99.90
23550;DHT22;11953;49.010;8.608;2022-08-18T13:25:19;27.60;99.90
23550;DHT22;11953;49.010;8.608;2022-08-18T13:28:23;27.70;99.90
23550;DHT22;11953;49.010;8.608;2022-08-18T13:31:15;27.50;99.90
23550;DHT22;11953;49.010;8.608;2022-08-18T13:34:04;27.30;99.90
23550;DHT22;11953;49.010;8.608;2022-08-18T13:36:56;27.40;99.90
23550;DHT22;11953;49.010;8.608;2022-08-18T13:39:43;27.60;99.90
23550;DHT22;11953;49.010;8.608;2022-08-18T13:42:41;27.80;99.90
23550;DHT22;11953;49.010;8.608;2022-08-18T13:45:35;27.70;99.90
23550;DHT22;11953;49.010;8.608;2022-08-18T13:48:24;27.80;99.90
23550;DHT22;11953;49.010;8.608;2022-08-18T13:51:17;27.90;99.90
23550;DHT22;11953;49.010;8.608;2022-08-18T13:54:06;27.90;99.90
23550;DHT22;11953;49.010;8.608;2022-08-18T13:57:13;28.00;99.90
23550;DHT22;11953;49.010;8.608;2022-08-18T14:00:04;27.80;99.90
23550;DHT22;11953;49.010;8.608;2022-08-18T14:03:02;27.40;99.90
23550;DHT22;11953;49.010;8.608;2022-08-18T14:05:49;27.20;99.90
23550;DHT22;11953;49.010;8.608;2022-08-18T14:08:45;27.20;99.90
23550;DHT22;11953;49.010;8.608;2022-08-18T14:11:34;27.20;99.90
23550;DHT22;11953;49.010;8.608;2022-08-18T14:14:26;27.30;99.90
23550;DHT22;11953;49.010;8.608;2022-08-18T14:17:14;27.40;99.90
23550;DHT22;11953;49.010;8.608;2022-08-18T14:20:05;27.50;99.90
23550;DHT22;11953;49.010;8.608;2022-08-18T14:23:12;27.50;99.90
23550;DHT22;11953;49.010;8.608;2022-08-18T14:26:17;27.60;99.90
23550;DHT22;11953;49.010;8.608;2022-08-18T14:29:22;27.60;99.90
23550;DHT22;11953;49.010;8.608;2022-08-18T14:32:29;27.50;99.90
23550;DHT22;11953;49.010;8.608;2022-08-18T14:35:20;27.50;99.90
23550;DHT22;11953;49.010;8.608;2022-08-18T14:38:28;27.50;99.90
23550;DHT22;11953;49.010;8.608;2022-08-18T14:41:15;27.50;99.90
23550;DHT22;11953;49.010;8.608;2022-08-18T14:44:03;27.60;99.90
23550;DHT22;11953;49.010;8.608;2022-08-18T14:46:58;27.50;99.90
23550;DHT22;11953;49.010;8.608;2022-08-18T14:49:46;27.60;99.90
23550;DHT22;11953;49.010;8.608;2022-08-18T14:52:33;27.60;99.90
23550;DHT22;11953;49.010;8.608;2022-08-18T14:55:21;27.70;99.90
23550;DHT22;11953;49.010;8.608;2022-08-18T14:58:08;27.60;99.90
23550;DHT22;11953;49.010;8.608;2022-08-18T15:00:57;27.60;99.90
23550;DHT22;11953;49.010;8.608;2022-08-18T15:03:44;27.60;99.90
23550;DHT22;11953;49.010;8.608;2022-08-18T15:06:34;27.60;99.90
23550;DHT22;11953;49.010;8.608;2022-08-18T15:09:21;27.50;99.90
23550;DHT22;11953;49.010;8.608;2022-08-18T15:12:11;27.50;99.90
23550;DHT22;11953;49.010;8.608;2022-08-18T15:15:02;27.50;99.90
23550;DHT22;11953;49.010;8.608;2022-08-18T15:17:49;27.50;99.90
23550;DHT22;11953;49.010;8.608;2022-08-18T15:20:38;27.50;99.90
23550;DHT22;11953;49.010;8.608;2022-08-18T15:23:40;27.50;99.90
23550;DHT22;11953;49.010;8.608;2022-08-18T15:26:45;27.40;99.90
23550;DHT22;11953;49.010;8.608;2022-08-18T15:29:36;27.30;99.90
23550;DHT22;11953;49.010;8.608;2022-08-18T15:32:26;27.10;99.90
23550;DHT22;11953;49.010;8.608;2022-08-18T15:35:14;27.10;99.90
23550;DHT22;11953;49.010;8.608;2022-08-18T15:38:01;27.10;99.90
23550;DHT22;11953;49.010;8.608;2022-08-18T15:40:54;27.10;99.90
23550;DHT22;11953;49.010;8.608;2022-08-18T15:43:42;27.20;99.90
23550;DHT22;11953;49.010;8.608;2022-08-18T15:46:32;27.00;99.90
23550;DHT22;11953;49.010;8.608;2022-08-18T15:49:20;26.90;99.90
23550;DHT22;11953;49.010;8.608;2022-08-18T15:52:10;27.00;99.90
23550;DHT22;11953;49.010;8.608;2022-08-18T15:55:02;27.00;99.90
23550;DHT22;11953;49.010;8.608;2022-08-18T15:57:54;26.90;99.90
23550;DHT22;11953;49.010;8.608;2022-08-18T16:00:44;26.80;99.90
23550;DHT22;11953;49.010;8.608;2022-08-18T16:03:32;26.70;99.90
23550;DHT22;11953;49.010;8.608;2022-08-18T16:06:21;26.70;99.90
23550;DHT22;11953;49.010;8.608;2022-08-18T16:09:16;26.70;99.90
23550;DHT22;11953;49.010;8.608;2022-08-18T16:12:03;26.70;99.90
23550;DHT22;11953;49.010;8.608;2022-08-18T16:14:54;26.60;99.90
23550;DHT22;11953;49.010;8.608;2022-08-18T16:17:41;26.60;99.90
23550;DHT22;11953;49.010;8.608;2022-08-18T16:20:32;26.50;99.90
23550;DHT22;11953;49.010;8.608;2022-08-18T16:23:19;26.40;99.90
23550;DHT22;11953;49.010;8.608;2022-08-18T16:26:10;26.30;99.90
23550;DHT22;11953;49.010;8.608;2022-08-18T16:29:01;26.30;99.90
23550;DHT22;11953;49.010;8.608;2022-08-18T16:31:49;26.30;99.90
23550;DHT22;11953;49.010;8.608;2022-08-18T16:34:36;26.20;99.90
23550;DHT22;11953;49.010;8.608;2022-08-18T16:37:24;26.20;99.90
23550;DHT22;11953;49.010;8.608;2022-08-18T16:40:12;26.20;99.90
23550;DHT22;11953;49.010;8.608;2022-08-18T16:42:58;26.20;99.90
23550;DHT22;11953;49.010;8.608;2022-08-18T16:45:45;26.10;99.90
23550;DHT22;11953;49.010;8.608;2022-08-18T16:48:36;26.10;99.90
23550;DHT22;11953;49.010;8.608;2022-08-18T16:51:25;26.10;99.90
23550;DHT22;11953;49.010;8.608;2022-08-18T16:54:12;26.00;99.90
23550;DHT22;11953;49.010;8.608;2022-08-18T16:57:00;26.00;99.90
23550;DHT22;11953;49.010;8.608;2022-08-18T16:59:47;25.90;99.90
23550;DHT22;11953;49.010;8.608;2022-08-18T17:02:51;25.90;99.90
23550;DHT22;11953;49.010;8.608;2022-08-18T17:06:02;25.80;99.90
23550;DHT22;11953;49.010;8.608;2022-08-18T17:08:49;25.70;99.90
23550;DHT22;11953;49.010;8.608;2022-08-18T17:11:37;25.70;99.90
23550;DHT22;11953;49.010;8.608;2022-08-18T17:14:36;25.70;99.90
23550;DHT22;11953;49.010;8.608;2022-08-18T17:17:23;25.70;99.90
23550;DHT22;11953;49.010;8.608;2022-08-18T17:20:11;25.60;99.90
23550;DHT22;11953;49.010;8.608;2022-08-18T17:23:03;25.60;99.90
23550;DHT22;11953;49.010;8.608;2022-08-18T17:25:50;25.70;99.90
23550;DHT22;11953;49.010;8.608;2022-08-18T17:28:42;25.60;99.90
23550;DHT22;11953;49.010;8.608;2022-08-18T17:31:37;25.60;99.90
23550;DHT22;11953;49.010;8.608;2022-08-18T17:34:30;25.60;99.90
23550;DHT22;11953;49.010;8.608;2022-08-18T17:37:22;25.50;99.90
23550;DHT22;11953;49.010;8.608;2022-08-18T17:40:16;25.60;99.90
23550;DHT22;11953;49.010;8.608;2022-08-18T17:43:02;25.50;99.90
23550;DHT22;11953;49.010;8.608;2022-08-18T17:45:53;25.40;99.90
23550;DHT22;11953;49.010;8.608;2022-08-18T17:48:44;25.40;99.90
23550;DHT22;11953;49.010;8.608;2022-08-18T17:51:35;25.30;99.90
23550;DHT22;11953;49.010;8.608;2022-08-18T17:54:32;25.30;99.90
23550;DHT22;11953;49.010;8.608;2022-08-18T17:57:27;25.20;99.90
23550;DHT22;11953;49.010;8.608;2022-08-18T18:00:16;25.30;99.90
23550;DHT22;11953;49.010;8.608;2022-08-18T18:03:03;25.30;99.90
23550;DHT22;11953;49.010;8.608;2022-08-18T18:05:57;25.20;99.90
23550;DHT22;11953;49.010;8.608;2022-08-18T18:08:52;25.20;99.90
23550;DHT22;11953;49.010;8.608;2022-08-18T18:11:41;25.30;99.90
23550;DHT22;11953;49.010;8.608;2022-08-18T18:14:37;25.30;99.90
23550;DHT22;11953;49.010;8.608;2022-08-18T18:17:27;25.30;99.90
23550;DHT22;11953;49.010;8.608;2022-08-18T18:20:24;25.30;99.90
23550;DHT22;11953;49.010;8.608;2022-08-18T18:23:20;25.20;99.90
23550;DHT22;11953;49.010;8.608;2022-08-18T18:26:24;25.20;99.90
23550;DHT22;11953;49.010;8.608;2022-08-18T18:29:17;25.10;99.90